createdAt,value
2019-03-03T00:00:41.165Z,1025.28
2019-03-03T00:01:41.153Z,1025.21
2019-03-03T00:02:41.138Z,1025.14
2019-03-03T00:03:41.124Z,1025.13
2019-03-03T00:04:41.126Z,1025.15
2019-03-03T00:05:41.099Z,1025.07
2019-03-03T00:06:41.083Z,1025.09
2019-03-03T00:07:41.068Z,1025.03
2019-03-03T00:08:41.057Z,1025.03
2019-03-03T00:09:41.042Z,1025.02
2019-03-03T00:10:41.028Z,1025.03
2019-03-03T00:11:41.015Z,1024.97
2019-03-03T00:12:41.001Z,1024.91
2019-03-03T00:13:41.013Z,1024.9
2019-03-03T00:14:40.975Z,1024.89
2019-03-03T00:15:40.974Z,1024.84
2019-03-03T00:16:40.947Z,1024.84
2019-03-03T00:17:40.933Z,1024.78
2019-03-03T00:18:40.920Z,1024.77
2019-03-03T00:19:40.907Z,1024.77
2019-03-03T00:20:40.893Z,1024.7
2019-03-03T00:21:40.879Z,1024.66
2019-03-03T00:22:40.866Z,1024.68
2019-03-03T00:23:40.853Z,1024.63
2019-03-03T00:24:40.841Z,1024.56
2019-03-03T00:25:40.832Z,1024.52
2019-03-03T00:26:40.813Z,1024.46
2019-03-03T00:27:40.801Z,1024.42
2019-03-03T00:28:40.785Z,1024.42
2019-03-03T00:29:40.773Z,1024.36
2019-03-03T00:30:40.760Z,1024.37
2019-03-03T00:31:40.747Z,1024.32
2019-03-03T00:32:40.733Z,1024.27
2019-03-03T00:33:40.723Z,1024.23
2019-03-03T00:34:40.711Z,1024.26
2019-03-03T00:35:40.694Z,1024.18
2019-03-03T00:36:40.680Z,1024.24
2019-03-03T00:37:40.679Z,1024.22
2019-03-03T00:38:40.655Z,1024.22
2019-03-03T00:39:40.641Z,1024.21
2019-03-03T00:40:40.628Z,1024.13
2019-03-03T00:41:40.615Z,1024.09
2019-03-03T00:42:40.603Z,1024.07
2019-03-03T00:43:40.589Z,1024.05
2019-03-03T00:44:40.576Z,1024.07
2019-03-03T00:45:40.563Z,1024.11
2019-03-03T00:46:40.550Z,1024.05
2019-03-03T00:47:40.537Z,1024.03
2019-03-03T00:48:40.525Z,1023.96
2019-03-03T00:49:40.511Z,1023.99
2019-03-03T00:50:40.498Z,1023.91
2019-03-03T00:51:40.485Z,1023.95
2019-03-03T00:52:40.473Z,1023.87
2019-03-03T00:53:40.460Z,1023.82
2019-03-03T00:54:40.446Z,1023.82
2019-03-03T00:55:40.433Z,1023.77
2019-03-03T00:56:40.421Z,1023.78
2019-03-03T00:57:40.408Z,1023.76
2019-03-03T00:58:40.396Z,1023.77
2019-03-03T00:59:40.384Z,1023.79
2019-03-03T01:00:40.370Z,1023.75
2019-03-03T01:01:40.355Z,1023.7
2019-03-03T01:02:40.344Z,1023.65
2019-03-03T01:03:40.332Z,1023.63
2019-03-03T01:04:40.319Z,1023.57
2019-03-03T01:05:40.306Z,1023.55
2019-03-03T01:06:40.294Z,1023.54
2019-03-03T01:07:40.279Z,1023.51
2019-03-03T01:08:40.268Z,1023.47
2019-03-03T01:09:40.254Z,1023.48
2019-03-03T01:10:40.242Z,1023.46
2019-03-03T01:11:40.230Z,1023.42
2019-03-03T01:12:40.217Z,1023.4
2019-03-03T01:13:40.203Z,1023.37
2019-03-03T01:14:40.191Z,1023.31
2019-03-03T01:15:40.180Z,1023.29
2019-03-03T01:16:40.174Z,1023.33
2019-03-03T01:17:40.154Z,1023.35
2019-03-03T01:18:40.146Z,1023.32
2019-03-03T01:19:40.130Z,1023.31
2019-03-03T01:20:40.117Z,1023.35
2019-03-03T01:21:40.106Z,1023.31
2019-03-03T01:22:40.093Z,1023.32
2019-03-03T01:23:40.081Z,1023.34
2019-03-03T01:24:40.071Z,1023.31
2019-03-03T01:25:40.056Z,1023.33
2019-03-03T01:26:40.044Z,1023.29
2019-03-03T01:27:40.031Z,1023.25
2019-03-03T01:28:40.019Z,1023.2
2019-03-03T01:29:40.006Z,1023.16
2019-03-03T01:30:39.995Z,1023.17
2019-03-03T01:31:39.981Z,1023.15
2019-03-03T01:32:39.971Z,1023.16
2019-03-03T01:33:39.957Z,1023.15
2019-03-03T01:34:39.944Z,1023.15
2019-03-03T01:35:39.933Z,1023.13
2019-03-03T01:36:39.920Z,1023.14
2019-03-03T01:37:39.909Z,1023.15
2019-03-03T01:38:39.897Z,1023.14
2019-03-03T01:39:39.883Z,1023.11
2019-03-03T01:40:39.871Z,1023.12
2019-03-03T01:41:39.861Z,1023.12
2019-03-03T01:42:39.845Z,1023.09
2019-03-03T01:43:39.833Z,1023.08
2019-03-03T01:44:39.822Z,1023.06
2019-03-03T01:45:39.809Z,1023.13
2019-03-03T01:46:39.796Z,1023.1
2019-03-03T01:47:39.785Z,1023.06
2019-03-03T01:48:39.773Z,1023.06
2019-03-03T01:49:39.760Z,1023.04
2019-03-03T01:50:39.748Z,1022.99
2019-03-03T01:51:39.736Z,1022.95
2019-03-03T01:52:39.724Z,1022.95
2019-03-03T01:53:39.711Z,1022.96
2019-03-03T01:54:39.700Z,1022.89
2019-03-03T01:55:39.687Z,1022.92
2019-03-03T01:56:39.674Z,1022.91
2019-03-03T01:57:39.664Z,1022.88
2019-03-03T01:58:39.651Z,1022.83
2019-03-03T01:59:39.639Z,1022.79
2019-03-03T02:00:39.634Z,1022.73
2019-03-03T02:01:39.615Z,1022.64
2019-03-03T02:02:39.603Z,1022.66
2019-03-03T02:03:39.590Z,1022.64
2019-03-03T02:04:39.578Z,1022.61
2019-03-03T02:05:39.566Z,1022.65
2019-03-03T02:06:39.554Z,1022.64
2019-03-03T02:07:39.541Z,1022.6
2019-03-03T02:08:39.530Z,1022.62
2019-03-03T02:09:39.520Z,1022.58
2019-03-03T02:10:39.507Z,1022.55
2019-03-03T02:11:39.494Z,1022.56
2019-03-03T02:12:39.482Z,1022.52
2019-03-03T02:13:39.471Z,1022.55
2019-03-03T02:14:39.458Z,1022.55
2019-03-03T02:15:39.447Z,1022.51
2019-03-03T02:16:39.434Z,1022.44
2019-03-03T02:17:39.423Z,1022.41
2019-03-03T02:18:39.411Z,1022.38
2019-03-03T02:19:39.399Z,1022.38
2019-03-03T02:20:39.388Z,1022.33
2019-03-03T02:21:39.376Z,1022.29
2019-03-03T02:22:39.363Z,1022.28
2019-03-03T02:23:39.351Z,1022.23
2019-03-03T02:24:39.340Z,1022.27
2019-03-03T02:25:39.329Z,1022.28
2019-03-03T02:26:39.315Z,1022.26
2019-03-03T02:27:39.305Z,1022.26
2019-03-03T02:28:39.293Z,1022.28
2019-03-03T02:29:39.283Z,1022.3
2019-03-03T02:30:39.271Z,1022.24
2019-03-03T02:31:39.259Z,1022.24
2019-03-03T02:32:39.246Z,1022.18
2019-03-03T02:33:39.237Z,1022.14
2019-03-03T02:34:39.229Z,1022.14
2019-03-03T02:35:39.218Z,1022.09
2019-03-03T02:36:39.201Z,1022.03
2019-03-03T02:37:39.192Z,1022.12
2019-03-03T02:38:39.176Z,1022.08
2019-03-03T02:39:39.179Z,1022.11
2019-03-03T02:40:39.155Z,1022.14
2019-03-03T02:41:39.144Z,1022.11
2019-03-03T02:42:39.128Z,1022.04
2019-03-03T02:43:39.136Z,1022.04
2019-03-03T02:44:39.105Z,1022.05
2019-03-03T02:45:39.102Z,1022.03
2019-03-03T02:46:39.082Z,1022.02
2019-03-03T02:47:39.073Z,1022.03
2019-03-03T02:48:39.061Z,1022
2019-03-03T02:49:39.051Z,1022.03
2019-03-03T02:50:39.036Z,1022.06
2019-03-03T02:51:39.024Z,1022.07
2019-03-03T02:52:39.030Z,1022.1
2019-03-03T02:53:39.000Z,1022.08
2019-03-03T02:54:38.989Z,1022.1
2019-03-03T02:55:38.981Z,1022.11
2019-03-03T02:56:38.967Z,1022.08
2019-03-03T02:57:38.962Z,1022.11
2019-03-03T02:58:38.944Z,1022.08
2019-03-03T02:59:38.933Z,1022.12
2019-03-03T03:00:38.927Z,1022.15
2019-03-03T03:01:38.910Z,1022.14
2019-03-03T03:02:38.897Z,1022.19
2019-03-03T03:03:38.889Z,1022.15
2019-03-03T03:04:38.875Z,1022.15
2019-03-03T03:05:38.864Z,1022.12
2019-03-03T03:06:38.853Z,1022.05
2019-03-03T03:07:38.840Z,1022.02
2019-03-03T03:08:38.833Z,1022.08
2019-03-03T03:09:38.819Z,1022.1
2019-03-03T03:10:38.805Z,1022.13
2019-03-03T03:11:38.792Z,1022.1
2019-03-03T03:12:38.785Z,1022.08
2019-03-03T03:13:38.771Z,1022.08
2019-03-03T03:14:38.770Z,1022.04
2019-03-03T03:15:40.509Z,1022.07
2019-03-03T03:16:38.733Z,1022.02
2019-03-03T03:17:38.725Z,1022.02
2019-03-03T03:18:38.712Z,1021.99
2019-03-03T03:19:38.708Z,1022.01
2019-03-03T03:20:38.691Z,1021.93
2019-03-03T03:21:38.683Z,1021.94
2019-03-03T03:22:38.671Z,1021.91
2019-03-03T03:23:38.665Z,1021.93
2019-03-03T03:24:38.648Z,1021.89
2019-03-03T03:25:38.631Z,1021.87
2019-03-03T03:26:38.620Z,1021.86
2019-03-03T03:27:38.607Z,1021.78
2019-03-03T03:28:38.596Z,1021.81
2019-03-03T03:29:38.590Z,1021.81
2019-03-03T03:30:38.582Z,1021.82
2019-03-03T03:31:38.562Z,1021.79
2019-03-03T03:32:38.553Z,1021.74
2019-03-03T03:33:38.547Z,1021.8
2019-03-03T03:34:38.529Z,1021.76
2019-03-03T03:35:38.516Z,1021.75
2019-03-03T03:36:38.504Z,1021.73
2019-03-03T03:37:38.493Z,1021.68
2019-03-03T03:38:38.479Z,1021.66
2019-03-03T03:39:38.471Z,1021.65
2019-03-03T03:40:38.459Z,1021.56
2019-03-03T03:41:38.446Z,1021.54
2019-03-03T03:42:38.437Z,1021.51
2019-03-03T03:43:38.431Z,1021.45
2019-03-03T03:44:38.415Z,1021.43
2019-03-03T03:45:38.401Z,1021.44
2019-03-03T03:46:38.389Z,1021.43
2019-03-03T03:47:38.376Z,1021.45
2019-03-03T03:48:38.366Z,1021.44
2019-03-03T03:49:38.354Z,1021.41
2019-03-03T03:50:38.342Z,1021.43
2019-03-03T03:51:38.330Z,1021.43
2019-03-03T03:52:38.320Z,1021.42
2019-03-03T03:53:38.308Z,1021.37
2019-03-03T03:54:38.296Z,1021.41
2019-03-03T03:55:38.284Z,1021.4
2019-03-03T03:56:38.274Z,1021.4
2019-03-03T03:57:38.262Z,1021.4
2019-03-03T03:58:38.252Z,1021.38
2019-03-03T03:59:38.240Z,1021.37
2019-03-03T04:00:38.225Z,1021.32
2019-03-03T04:01:38.216Z,1021.34
2019-03-03T04:02:38.203Z,1021.34
2019-03-03T04:03:38.196Z,1021.36
2019-03-03T04:04:38.179Z,1021.31
2019-03-03T04:05:38.168Z,1021.37
2019-03-03T04:06:38.156Z,1021.33
2019-03-03T04:07:38.193Z,1021.32
2019-03-03T04:08:38.133Z,1021.33
2019-03-03T04:09:38.122Z,1021.31
2019-03-03T04:10:38.111Z,1021.33
2019-03-03T04:11:38.098Z,1021.31
2019-03-03T04:12:38.087Z,1021.3
2019-03-03T04:13:38.075Z,1021.32
2019-03-03T04:14:38.064Z,1021.32
2019-03-03T04:15:38.050Z,1021.33
2019-03-03T04:16:38.039Z,1021.34
2019-03-03T04:17:38.030Z,1021.35
2019-03-03T04:18:38.017Z,1021.31
2019-03-03T04:19:38.014Z,1021.26
2019-03-03T04:20:37.992Z,1021.31
2019-03-03T04:21:37.982Z,1021.24
2019-03-03T04:22:37.968Z,1021.26
2019-03-03T04:23:37.957Z,1021.22
2019-03-03T04:24:37.945Z,1021.21
2019-03-03T04:25:37.934Z,1021.23
2019-03-03T04:26:37.921Z,1021.2
2019-03-03T04:27:37.912Z,1021.22
2019-03-03T04:28:37.898Z,1021.22
2019-03-03T04:29:37.888Z,1021.2
2019-03-03T04:30:37.875Z,1021.15
2019-03-03T04:31:37.867Z,1021.14
2019-03-03T04:32:37.854Z,1021.11
2019-03-03T04:33:37.853Z,1021.06
2019-03-03T04:34:37.827Z,1021.05
2019-03-03T04:35:37.818Z,1021.09
2019-03-03T04:36:37.804Z,1021.04
2019-03-03T04:37:37.792Z,1021.01
2019-03-03T04:38:37.780Z,1021.02
2019-03-03T04:39:37.768Z,1021.05
2019-03-03T04:40:37.756Z,1020.98
2019-03-03T04:41:37.745Z,1020.95
2019-03-03T04:42:37.733Z,1021.02
2019-03-03T04:43:37.722Z,1021.02
2019-03-03T04:44:37.708Z,1020.98
2019-03-03T04:45:37.696Z,1020.94
2019-03-03T04:46:37.686Z,1020.9
2019-03-03T04:47:37.674Z,1020.86
2019-03-03T04:48:37.661Z,1020.83
2019-03-03T04:49:37.649Z,1020.76
2019-03-03T04:50:37.638Z,1020.73
2019-03-03T04:51:37.625Z,1020.72
2019-03-03T04:52:37.614Z,1020.74
2019-03-03T04:53:37.602Z,1020.71
2019-03-03T04:54:37.597Z,1020.68
2019-03-03T04:55:37.579Z,1020.69
2019-03-03T04:56:37.566Z,1020.61
2019-03-03T04:57:37.555Z,1020.63
2019-03-03T04:58:37.543Z,1020.61
2019-03-03T04:59:37.531Z,1020.57
2019-03-03T05:00:37.520Z,1020.56
2019-03-03T05:01:37.508Z,1020.51
2019-03-03T05:02:37.496Z,1020.49
2019-03-03T05:03:37.485Z,1020.45
2019-03-03T05:04:37.473Z,1020.43
2019-03-03T05:05:37.462Z,1020.36
2019-03-03T05:06:37.450Z,1020.36
2019-03-03T05:07:37.439Z,1020.36
2019-03-03T05:08:37.427Z,1020.31
2019-03-03T05:09:37.415Z,1020.27
2019-03-03T05:10:37.405Z,1020.23
2019-03-03T05:11:37.393Z,1020.24
2019-03-03T05:12:37.383Z,1020.25
2019-03-03T05:13:37.370Z,1020.17
2019-03-03T05:14:37.359Z,1020.16
2019-03-03T05:15:37.383Z,1020.1
2019-03-03T05:16:37.336Z,1020.06
2019-03-03T05:17:37.324Z,1020.1
2019-03-03T05:18:37.313Z,1020.07
2019-03-03T05:19:37.302Z,1020.12
2019-03-03T05:20:37.291Z,1020.1
2019-03-03T05:21:37.282Z,1020.11
2019-03-03T05:22:37.269Z,1020.08
2019-03-03T05:23:37.258Z,1020.08
2019-03-03T05:24:37.249Z,1020.04
2019-03-03T05:25:37.234Z,1020.05
2019-03-03T05:26:37.224Z,1020.08
2019-03-03T05:27:37.213Z,1020.03
2019-03-03T05:28:37.201Z,1020.01
2019-03-03T05:29:37.191Z,1020
2019-03-03T05:30:37.179Z,1019.96
2019-03-03T05:31:37.169Z,1019.9
2019-03-03T05:32:37.157Z,1019.92
2019-03-03T05:33:37.145Z,1019.88
2019-03-03T05:34:37.177Z,1019.88
2019-03-03T05:35:37.123Z,1019.9
2019-03-03T05:36:37.112Z,1019.9
2019-03-03T05:37:37.101Z,1019.85
2019-03-03T05:38:37.092Z,1019.84
2019-03-03T05:39:37.079Z,1019.86
2019-03-03T05:40:37.068Z,1019.82
2019-03-03T05:41:37.057Z,1019.82
2019-03-03T05:42:37.047Z,1019.72
2019-03-03T05:43:37.034Z,1019.76
2019-03-03T05:44:37.024Z,1019.75
2019-03-03T05:45:37.014Z,1019.78
2019-03-03T05:46:37.002Z,1019.72
2019-03-03T05:47:36.991Z,1019.74
2019-03-03T05:48:36.980Z,1019.73
2019-03-03T05:49:36.970Z,1019.75
2019-03-03T05:50:36.960Z,1019.71
2019-03-03T05:51:36.947Z,1019.67
2019-03-03T05:52:36.940Z,1019.62
2019-03-03T05:53:36.926Z,1019.6
2019-03-03T05:54:36.915Z,1019.47
2019-03-03T05:55:36.904Z,1019.45
2019-03-03T05:56:36.894Z,1019.54
2019-03-03T05:57:36.882Z,1019.58
2019-03-03T05:58:36.872Z,1019.59
2019-03-03T05:59:36.861Z,1019.66
2019-03-03T06:00:36.849Z,1019.62
2019-03-03T06:01:36.839Z,1019.59
2019-03-03T06:02:36.828Z,1019.62
2019-03-03T06:03:36.817Z,1019.58
2019-03-03T06:04:36.807Z,1019.56
2019-03-03T06:05:36.797Z,1019.47
2019-03-03T06:06:36.786Z,1019.42
2019-03-03T06:07:36.776Z,1019.44
2019-03-03T06:08:36.763Z,1019.45
2019-03-03T06:09:36.753Z,1019.46
2019-03-03T06:10:36.743Z,1019.45
2019-03-03T06:11:36.732Z,1019.46
2019-03-03T06:12:36.721Z,1019.45
2019-03-03T06:13:36.710Z,1019.48
2019-03-03T06:14:36.700Z,1019.43
2019-03-03T06:15:36.689Z,1019.4
2019-03-03T06:16:36.679Z,1019.34
2019-03-03T06:17:36.669Z,1019.38
2019-03-03T06:18:36.656Z,1019.34
2019-03-03T06:19:36.645Z,1019.32
2019-03-03T06:20:36.635Z,1019.22
2019-03-03T06:21:36.625Z,1019.24
2019-03-03T06:22:36.615Z,1019.25
2019-03-03T06:23:36.603Z,1019.26
2019-03-03T06:24:36.593Z,1019.22
2019-03-03T06:25:36.583Z,1019.21
2019-03-03T06:26:36.571Z,1019.18
2019-03-03T06:27:36.561Z,1019.21
2019-03-03T06:28:36.550Z,1019.25
2019-03-03T06:29:36.540Z,1019.16
2019-03-03T06:30:36.528Z,1019.13
2019-03-03T06:31:36.519Z,1019.09
2019-03-03T06:32:36.508Z,1019.09
2019-03-03T06:33:36.498Z,1019
2019-03-03T06:34:36.487Z,1018.98
2019-03-03T06:35:36.476Z,1018.95
2019-03-03T06:36:36.466Z,1018.97
2019-03-03T06:37:36.455Z,1018.98
2019-03-03T06:38:36.445Z,1018.94
2019-03-03T06:39:36.436Z,1018.94
2019-03-03T06:40:36.427Z,1018.96
2019-03-03T06:41:36.413Z,1018.95
2019-03-03T06:42:36.402Z,1018.95
2019-03-03T06:43:36.393Z,1018.91
2019-03-03T06:44:36.383Z,1018.86
2019-03-03T06:45:36.371Z,1018.83
2019-03-03T06:46:36.362Z,1018.87
2019-03-03T06:47:36.355Z,1018.88
2019-03-03T06:48:36.342Z,1018.88
2019-03-03T06:49:36.330Z,1018.85
2019-03-03T06:50:36.321Z,1018.8
2019-03-03T06:51:36.309Z,1018.8
2019-03-03T06:52:36.299Z,1018.83
2019-03-03T06:53:36.289Z,1018.84
2019-03-03T06:54:36.279Z,1018.78
2019-03-03T06:55:36.272Z,1018.73
2019-03-03T06:56:36.258Z,1018.69
2019-03-03T06:57:36.248Z,1018.69
2019-03-03T06:58:36.238Z,1018.7
2019-03-03T06:59:36.227Z,1018.68
2019-03-03T07:00:36.218Z,1018.65
2019-03-03T07:01:36.207Z,1018.59
2019-03-03T07:02:36.198Z,1018.57
2019-03-03T07:03:36.188Z,1018.58
2019-03-03T07:04:36.176Z,1018.63
2019-03-03T07:05:36.167Z,1018.58
2019-03-03T07:06:36.157Z,1018.6
2019-03-03T07:07:36.147Z,1018.53
2019-03-03T07:08:36.137Z,1018.51
2019-03-03T07:09:36.129Z,1018.54
2019-03-03T07:10:36.116Z,1018.53
2019-03-03T07:11:36.104Z,1018.58
2019-03-03T07:12:36.095Z,1018.55
2019-03-03T07:13:36.086Z,1018.56
2019-03-03T07:14:36.075Z,1018.45
2019-03-03T07:15:36.066Z,1018.48
2019-03-03T07:16:36.056Z,1018.44
2019-03-03T07:17:36.047Z,1018.47
2019-03-03T07:18:36.043Z,1018.41
2019-03-03T07:19:36.026Z,1018.4
2019-03-03T07:20:36.017Z,1018.38
2019-03-03T07:21:36.006Z,1018.38
2019-03-03T07:22:35.996Z,1018.35
2019-03-03T07:23:35.986Z,1018.34
2019-03-03T07:24:35.976Z,1018.32
2019-03-03T07:25:36.266Z,1018.38
2019-03-03T07:26:35.956Z,1018.35
2019-03-03T07:27:35.947Z,1018.3
2019-03-03T07:28:35.941Z,1018.25
2019-03-03T07:29:35.928Z,1018.19
2019-03-03T07:30:35.919Z,1018.22
2019-03-03T07:31:35.908Z,1018.13
2019-03-03T07:32:35.897Z,1018.16
2019-03-03T07:33:35.894Z,1018.07
2019-03-03T07:34:35.878Z,1018.05
2019-03-03T07:35:35.868Z,1018.13
2019-03-03T07:36:35.858Z,1018.12
2019-03-03T07:37:35.849Z,1018.08
2019-03-03T07:38:35.840Z,1018.09
2019-03-03T07:39:35.829Z,1018.05
2019-03-03T07:40:35.821Z,1017.96
2019-03-03T07:41:35.812Z,1017.97
2019-03-03T07:42:35.802Z,1018.03
2019-03-03T07:43:35.792Z,1018.01
2019-03-03T07:44:35.785Z,1018.01
2019-03-03T07:45:35.777Z,1018.07
2019-03-03T07:46:35.765Z,1018.06
2019-03-03T07:47:35.754Z,1017.99
2019-03-03T07:48:35.745Z,1018.06
2019-03-03T07:49:35.736Z,1018.02
2019-03-03T07:50:35.726Z,1017.98
2019-03-03T07:51:35.717Z,1017.92
2019-03-03T07:52:35.708Z,1017.85
2019-03-03T07:53:35.699Z,1017.93
2019-03-03T07:54:35.689Z,1017.86
2019-03-03T07:55:35.679Z,1017.81
2019-03-03T07:56:35.670Z,1017.72
2019-03-03T07:57:35.661Z,1017.68
2019-03-03T07:58:35.652Z,1017.64
2019-03-03T07:59:35.643Z,1017.59
2019-03-03T08:00:35.634Z,1017.63
2019-03-03T08:01:35.626Z,1017.55
2019-03-03T08:02:35.614Z,1017.51
2019-03-03T08:03:35.606Z,1017.4
2019-03-03T08:04:35.597Z,1017.35
2019-03-03T08:05:35.587Z,1017.28
2019-03-03T08:06:35.582Z,1017.23
2019-03-03T08:07:35.570Z,1017.16
2019-03-03T08:08:35.561Z,1017.17
2019-03-03T08:09:35.551Z,1017.15
2019-03-03T08:10:35.543Z,1017.13
2019-03-03T08:11:35.534Z,1017.13
2019-03-03T08:12:35.524Z,1017.04
2019-03-03T08:13:35.516Z,1017.05
2019-03-03T08:14:35.509Z,1017.03
2019-03-03T08:15:35.498Z,1016.88
2019-03-03T08:16:35.489Z,1017.03
2019-03-03T08:17:35.481Z,1016.97
2019-03-03T08:18:35.474Z,1016.99
2019-03-03T08:19:35.464Z,1017.01
2019-03-03T08:20:35.457Z,1016.8
2019-03-03T08:21:35.446Z,1016.84
2019-03-03T08:22:35.438Z,1016.77
2019-03-03T08:23:35.431Z,1016.68
2019-03-03T08:24:35.422Z,1016.71
2019-03-03T08:25:35.423Z,1016.68
2019-03-03T08:26:35.404Z,1016.69
2019-03-03T08:27:35.395Z,1016.69
2019-03-03T08:28:35.387Z,1016.63
2019-03-03T08:29:35.379Z,1016.65
2019-03-03T08:30:35.370Z,1016.71
2019-03-03T08:31:35.361Z,1016.59
2019-03-03T08:32:35.354Z,1016.45
2019-03-03T08:33:35.346Z,1016.46
2019-03-03T08:34:35.344Z,1016.32
2019-03-03T08:35:35.330Z,1016.16
2019-03-03T08:36:35.322Z,1016.06
2019-03-03T08:37:35.318Z,1015.97
2019-03-03T08:38:35.305Z,1015.81
2019-03-03T08:39:35.299Z,1015.77
2019-03-03T08:40:35.291Z,1015.69
2019-03-03T08:41:35.283Z,1015.65
2019-03-03T08:42:35.275Z,1015.45
2019-03-03T08:43:35.268Z,1015.43
2019-03-03T08:44:35.259Z,1015.38
2019-03-03T08:45:35.254Z,1015.3
2019-03-03T08:46:35.246Z,1015.36
2019-03-03T08:47:35.239Z,1015.34
2019-03-03T08:48:35.232Z,1015.28
2019-03-03T08:49:35.224Z,1015.42
2019-03-03T08:50:35.217Z,1015.44
2019-03-03T08:51:35.210Z,1015.57
2019-03-03T08:52:35.205Z,1015.66
2019-03-03T08:53:35.196Z,1015.72
2019-03-03T08:54:35.191Z,1015.83
2019-03-03T08:55:35.184Z,1015.92
2019-03-03T08:56:35.174Z,1015.77
2019-03-03T08:57:35.168Z,1015.7
2019-03-03T08:58:35.162Z,1015.51
2019-03-03T08:59:35.155Z,1015.53
2019-03-03T09:00:35.148Z,1015.52
2019-03-03T09:01:35.141Z,1015.53
2019-03-03T09:02:35.135Z,1015.52
2019-03-03T09:03:35.128Z,1015.52
2019-03-03T09:04:35.120Z,1015.54
2019-03-03T09:05:35.114Z,1015.61
2019-03-03T09:06:35.107Z,1015.68
2019-03-03T09:07:35.100Z,1015.76
2019-03-03T09:08:35.093Z,1015.68
2019-03-03T09:09:35.087Z,1015.69
2019-03-03T09:10:35.080Z,1015.78
2019-03-03T09:11:35.073Z,1015.68
2019-03-03T09:12:35.067Z,1015.94
2019-03-03T09:13:35.060Z,1015.99
2019-03-03T09:14:35.054Z,1015.99
2019-03-03T09:15:35.047Z,1016.1
2019-03-03T09:16:35.040Z,1016.13
2019-03-03T09:17:35.035Z,1016.21
2019-03-03T09:18:35.029Z,1016.16
2019-03-03T09:19:35.020Z,1016.15
2019-03-03T09:20:35.015Z,1016.07
2019-03-03T09:21:35.007Z,1016.08
2019-03-03T09:22:34.998Z,1016.06
2019-03-03T09:23:34.992Z,1015.96
2019-03-03T09:24:34.986Z,1016.01
2019-03-03T09:25:34.977Z,1016.02
2019-03-03T09:26:34.971Z,1015.93
2019-03-03T09:27:34.963Z,1015.97
2019-03-03T09:28:34.957Z,1016
2019-03-03T09:29:34.950Z,1015.96
2019-03-03T09:30:34.943Z,1015.99
2019-03-03T09:31:34.936Z,1016
2019-03-03T09:32:34.930Z,1015.99
2019-03-03T09:33:36.742Z,1015.95
2019-03-03T09:34:34.916Z,1016.08
2019-03-03T09:35:34.907Z,1015.97
2019-03-03T09:36:34.900Z,1016.09
2019-03-03T09:37:34.894Z,1016.19
2019-03-03T09:38:34.887Z,1016.16
2019-03-03T09:39:34.880Z,1016.18
2019-03-03T09:40:34.872Z,1016.13
2019-03-03T09:41:34.865Z,1016.17
2019-03-03T09:42:34.858Z,1016.18
2019-03-03T09:43:34.851Z,1016.15
2019-03-03T09:44:34.843Z,1016.12
2019-03-03T09:45:34.836Z,1016.12
2019-03-03T09:46:34.830Z,1016.01
2019-03-03T09:47:34.822Z,1016.08
2019-03-03T09:48:34.815Z,1016.01
2019-03-03T09:49:34.808Z,1015.98
2019-03-03T09:50:34.801Z,1016.03
2019-03-03T09:51:34.793Z,1016
2019-03-03T09:52:34.787Z,1016.1
2019-03-03T09:53:34.779Z,1016.12
2019-03-03T09:54:34.772Z,1016.08
2019-03-03T09:55:34.764Z,1016.17
2019-03-03T09:56:34.757Z,1016.29
2019-03-03T09:57:34.751Z,1016.43
2019-03-03T09:58:34.742Z,1016.38
2019-03-03T09:59:34.736Z,1016.48
2019-03-03T10:00:34.730Z,1016.46
2019-03-03T10:01:34.722Z,1016.5
2019-03-03T10:02:34.717Z,1016.45
2019-03-03T10:03:34.707Z,1016.38
2019-03-03T10:04:34.700Z,1016.3
2019-03-03T10:05:34.692Z,1016.25
2019-03-03T10:06:34.684Z,1016.16
2019-03-03T10:07:34.678Z,1016.2
2019-03-03T10:08:34.670Z,1016.15
2019-03-03T10:09:34.662Z,1016.07
2019-03-03T10:10:34.657Z,1016.06
2019-03-03T10:11:34.648Z,1015.97
2019-03-03T10:12:34.640Z,1016.08
2019-03-03T10:13:34.633Z,1016.22
2019-03-03T10:14:34.626Z,1016.35
2019-03-03T10:15:34.619Z,1016.27
2019-03-03T10:16:34.613Z,1016.21
2019-03-03T10:17:34.603Z,1016.22
2019-03-03T10:18:34.596Z,1016.16
2019-03-03T10:19:34.590Z,1016.15
2019-03-03T10:20:34.581Z,1016.11
2019-03-03T10:21:34.575Z,1016.16
2019-03-03T10:22:34.573Z,1015.99
2019-03-03T10:23:34.563Z,1015.86
2019-03-03T10:24:34.554Z,1015.79
2019-03-03T10:25:34.549Z,1015.75
2019-03-03T10:26:35.123Z,1015.75
2019-03-03T10:27:34.536Z,1015.8
2019-03-03T10:28:34.526Z,1015.72
2019-03-03T10:29:34.518Z,1015.7
2019-03-03T10:30:34.513Z,1015.69
2019-03-03T10:31:34.506Z,1015.66
2019-03-03T10:32:34.497Z,1015.66
2019-03-03T10:33:34.490Z,1015.83
2019-03-03T10:34:34.485Z,1015.91
2019-03-03T10:35:34.477Z,1015.94
2019-03-03T10:36:34.471Z,1016.01
2019-03-03T10:37:34.463Z,1016.03
2019-03-03T10:38:36.202Z,1016.07
2019-03-03T10:39:34.451Z,1016.02
2019-03-03T10:40:34.443Z,1015.95
2019-03-03T10:41:34.438Z,1015.89
2019-03-03T10:42:34.428Z,1015.92
2019-03-03T10:43:34.422Z,1015.94
2019-03-03T10:44:34.416Z,1015.93
2019-03-03T10:45:34.411Z,1015.96
2019-03-03T10:46:34.402Z,1015.96
2019-03-03T10:47:34.394Z,1016.07
2019-03-03T10:48:34.387Z,1016.05
2019-03-03T10:49:34.381Z,1016.07
2019-03-03T10:50:34.374Z,1016.05
2019-03-03T10:51:34.368Z,1016.06
2019-03-03T10:52:34.361Z,1016.04
2019-03-03T10:53:34.352Z,1016.08
2019-03-03T10:54:34.346Z,1016.16
2019-03-03T10:55:34.339Z,1016.21
2019-03-03T10:56:34.333Z,1016.25
2019-03-03T10:57:34.325Z,1016.18
2019-03-03T10:58:34.317Z,1016.06
2019-03-03T10:59:34.311Z,1015.98
2019-03-03T11:00:34.303Z,1016.04
2019-03-03T11:01:34.295Z,1016.01
2019-03-03T11:02:34.288Z,1016.06
2019-03-03T11:03:34.283Z,1016.17
2019-03-03T11:04:34.275Z,1016.25
2019-03-03T11:05:34.268Z,1016.27
2019-03-03T11:06:34.261Z,1016.32
2019-03-03T11:07:34.254Z,1016.41
2019-03-03T11:08:34.246Z,1016.37
2019-03-03T11:09:34.239Z,1016.48
2019-03-03T11:10:34.233Z,1016.42
2019-03-03T11:11:34.224Z,1016.47
2019-03-03T11:12:34.218Z,1016.51
2019-03-03T11:13:34.210Z,1016.42
2019-03-03T11:14:34.204Z,1016.46
2019-03-03T11:15:34.195Z,1016.45
2019-03-03T11:16:34.188Z,1016.66
2019-03-03T11:17:34.181Z,1016.73
2019-03-03T11:18:34.173Z,1016.74
2019-03-03T11:19:34.167Z,1016.78
2019-03-03T11:20:34.158Z,1016.68
2019-03-03T11:21:34.151Z,1016.63
2019-03-03T11:22:34.143Z,1016.58
2019-03-03T11:23:34.143Z,1016.49
2019-03-03T11:24:34.128Z,1016.52
2019-03-03T11:25:34.121Z,1016.6
2019-03-03T11:26:34.111Z,1016.61
2019-03-03T11:27:34.106Z,1016.53
2019-03-03T11:28:34.098Z,1016.43
2019-03-03T11:29:34.091Z,1016.37
2019-03-03T11:30:34.082Z,1016.33
2019-03-03T11:31:34.075Z,1016.33
2019-03-03T11:32:34.068Z,1016.23
2019-03-03T11:33:34.059Z,1016.17
2019-03-03T11:34:34.053Z,1016.21
2019-03-03T11:35:34.045Z,1016.09
2019-03-03T11:36:34.038Z,1015.96
2019-03-03T11:37:34.029Z,1016.02
2019-03-03T11:38:34.024Z,1016.03
2019-03-03T11:39:34.015Z,1016.08
2019-03-03T11:40:34.007Z,1016.03
2019-03-03T11:41:34.002Z,1016.03
2019-03-03T11:42:33.993Z,1015.99
2019-03-03T11:43:33.988Z,1015.98
2019-03-03T11:44:33.977Z,1015.86
2019-03-03T11:45:33.973Z,1015.76
2019-03-03T11:46:33.965Z,1015.77
2019-03-03T11:47:33.958Z,1015.71
2019-03-03T11:48:33.949Z,1015.65
2019-03-03T11:49:33.941Z,1015.58
2019-03-03T11:50:33.934Z,1015.56
2019-03-03T11:51:33.931Z,1015.53
2019-03-03T11:52:33.921Z,1015.56
2019-03-03T11:53:33.913Z,1015.52
2019-03-03T11:54:33.911Z,1015.56
2019-03-03T11:55:33.899Z,1015.58
2019-03-03T11:56:33.895Z,1015.54
2019-03-03T11:57:33.889Z,1015.55
2019-03-03T11:58:33.880Z,1015.55
2019-03-03T11:59:33.873Z,1015.58
2019-03-03T12:00:33.865Z,1015.48
2019-03-03T12:01:33.858Z,1015.58
2019-03-03T12:02:33.851Z,1015.62
2019-03-03T12:03:33.842Z,1015.62
2019-03-03T12:04:33.837Z,1015.64
2019-03-03T12:05:33.830Z,1015.62
2019-03-03T12:06:33.822Z,1015.69
2019-03-03T12:07:33.817Z,1015.59